createdAt,value
2019-05-05T00:01:14.672Z,2.75
2019-05-05T00:03:49.239Z,2.47
2019-05-05T00:06:18.523Z,2.62
2019-05-05T00:08:47.813Z,2.80
2019-05-05T00:11:24.988Z,2.80
2019-05-05T00:14:12.574Z,3.20
2019-05-05T00:16:44.521Z,2.62
2019-05-05T00:19:19.127Z,3.12
2019-05-05T00:21:44.932Z,2.90
2019-05-05T00:24:15.166Z,3.22
2019-05-05T00:26:46.082Z,3.15
2019-05-05T00:29:15.503Z,3.00
2019-05-05T00:31:45.378Z,3.00
2019-05-05T00:34:15.480Z,2.98
2019-05-05T00:36:44.925Z,2.95
2019-05-05T00:39:15.076Z,2.90
2019-05-05T00:41:44.961Z,2.87
2019-05-05T00:44:15.368Z,2.52
2019-05-05T00:46:49.746Z,2.80
2019-05-05T00:49:19.038Z,2.52
2019-05-05T00:51:48.331Z,2.42
2019-05-05T00:54:17.659Z,2.70
2019-05-05T00:56:46.955Z,2.70
2019-05-05T00:59:17.883Z,2.65
2019-05-05T01:01:58.448Z,2.62
2019-05-05T01:04:29.452Z,2.70
2019-05-05T01:06:58.736Z,2.70
2019-05-05T01:09:29.956Z,2.45
2019-05-05T01:12:00.216Z,3.08
2019-05-05T01:14:29.489Z,2.45
2019-05-05T01:16:58.833Z,2.65
2019-05-05T01:19:28.479Z,2.60
2019-05-05T01:21:57.751Z,2.83
2019-05-05T01:24:27.106Z,2.70
2019-05-05T01:26:56.533Z,2.77
2019-05-05T01:29:25.812Z,2.87
2019-05-05T01:31:56.850Z,2.37
2019-05-05T01:34:34.848Z,2.70
2019-05-05T01:37:06.232Z,2.80
2019-05-05T01:39:39.712Z,2.35
2019-05-05T01:42:14.374Z,2.40
2019-05-05T01:44:44.762Z,2.85
2019-05-05T01:47:14.909Z,2.30
2019-05-05T01:49:45.276Z,2.80
2019-05-05T01:52:15.155Z,2.50
2019-05-05T01:54:44.798Z,2.70
2019-05-05T01:57:15.031Z,2.60
2019-05-05T01:59:45.028Z,2.85
2019-05-05T02:02:14.751Z,2.33
2019-05-05T02:04:44.871Z,2.45
2019-05-05T02:07:14.864Z,2.40
2019-05-05T02:09:44.891Z,2.65
2019-05-05T02:12:15.841Z,2.80
2019-05-05T02:14:45.808Z,2.87
2019-05-05T02:17:15.091Z,2.75
2019-05-05T02:19:44.651Z,2.70
2019-05-05T02:22:14.705Z,2.70
2019-05-05T02:24:44.692Z,2.95
2019-05-05T02:27:14.797Z,2.75
2019-05-05T02:29:46.139Z,2.98
2019-05-05T02:32:19.763Z,2.72
2019-05-05T02:34:56.294Z,2.65
2019-05-05T02:37:25.604Z,2.90
2019-05-05T02:40:02.028Z,3.22
2019-05-05T02:42:27.953Z,2.80
2019-05-05T02:45:05.044Z,2.80
2019-05-05T02:47:48.266Z,3.15
2019-05-05T02:50:18.534Z,3.52
2019-05-05T02:52:49.315Z,2.75
2019-05-05T02:55:20.363Z,2.62
2019-05-05T02:57:50.605Z,2.60
2019-05-05T03:00:24.337Z,3.02
2019-05-05T03:02:56.671Z,2.92
2019-05-05T03:05:26.762Z,3.10
2019-05-05T03:07:58.897Z,3.05
2019-05-05T03:10:30.640Z,3.30
2019-05-05T03:13:02.039Z,2.42
2019-05-05T03:15:58.124Z,3.17
2019-05-05T03:18:27.686Z,3.40
2019-05-05T03:21:04.559Z,3.35
2019-05-05T03:23:28.345Z,2.92
2019-05-05T03:25:57.629Z,3.25
2019-05-05T03:28:28.558Z,3.08
2019-05-05T03:30:58.025Z,3.60
2019-05-05T03:33:27.778Z,3.08
2019-05-05T03:35:57.902Z,2.90
2019-05-05T03:38:27.228Z,3.25
2019-05-05T03:40:58.694Z,2.95
2019-05-05T03:43:46.691Z,2.98
2019-05-05T03:46:16.123Z,3.52
2019-05-05T03:48:45.433Z,3.10
2019-05-05T03:51:18.767Z,3.77
2019-05-05T03:53:46.402Z,3.67
2019-05-05T03:56:15.752Z,3.85
2019-05-05T03:58:45.533Z,3.62
2019-05-05T04:01:38.170Z,3.83
2019-05-05T04:04:21.389Z,3.95
2019-05-05T04:06:54.045Z,3.40
2019-05-05T04:09:24.383Z,3.45
2019-05-05T04:11:54.698Z,3.80
2019-05-05T04:14:25.190Z,3.60
2019-05-05T04:17:05.279Z,3.85
2019-05-05T04:19:36.216Z,3.52
2019-05-05T04:22:05.570Z,3.77
2019-05-05T04:24:34.902Z,3.70
2019-05-05T04:27:04.441Z,3.67
2019-05-05T04:29:34.622Z,3.90
2019-05-05T04:32:04.684Z,3.65
2019-05-05T04:34:34.853Z,3.65
2019-05-05T04:37:04.382Z,4.12
2019-05-05T04:39:34.447Z,4.33
2019-05-05T04:42:04.780Z,3.83
2019-05-05T04:44:34.852Z,4.00
2019-05-05T04:47:08.600Z,3.85
2019-05-05T04:49:48.502Z,4.33
2019-05-05T04:52:19.481Z,4.05
2019-05-05T04:54:53.156Z,4.33
2019-05-05T04:57:24.007Z,3.80
2019-05-05T04:59:54.148Z,3.72
2019-05-05T05:02:34.271Z,3.87
2019-05-05T05:05:17.613Z,4.00
2019-05-05T05:07:46.909Z,3.90
2019-05-05T05:10:16.189Z,3.60
2019-05-05T05:12:45.514Z,3.75
2019-05-05T05:15:15.331Z,3.72
2019-05-05T05:17:46.246Z,3.65
2019-05-05T05:20:15.907Z,3.55
2019-05-05T05:22:45.236Z,3.70
2019-05-05T05:25:15.272Z,4.40
2019-05-05T05:27:44.619Z,3.80
2019-05-05T05:30:14.116Z,4.10
2019-05-05T05:32:44.535Z,3.85
2019-05-05T05:35:14.363Z,4.33
2019-05-05T05:37:44.743Z,4.17
2019-05-05T05:40:16.406Z,3.77
2019-05-05T05:42:46.342Z,4.10
2019-05-05T05:45:23.785Z,4.30
2019-05-05T05:47:54.972Z,3.50
2019-05-05T05:50:25.911Z,4.30
2019-05-05T05:52:55.221Z,3.90
2019-05-05T05:55:24.561Z,4.30
2019-05-05T05:57:54.286Z,3.62
2019-05-05T06:00:24.049Z,3.85
2019-05-05T06:02:54.593Z,3.27
2019-05-05T06:05:24.232Z,3.45
2019-05-05T06:07:54.424Z,3.83
2019-05-05T06:10:27.343Z,4.30
2019-05-05T06:12:55.631Z,3.25
2019-05-05T06:15:24.952Z,3.97
2019-05-05T06:17:54.254Z,3.20
2019-05-05T06:20:23.970Z,3.30
2019-05-05T06:22:53.779Z,3.40
2019-05-05T06:25:26.715Z,4.30
2019-05-05T06:27:54.399Z,3.70
2019-05-05T06:30:24.347Z,4.27
2019-05-05T06:32:54.521Z,4.05
2019-05-05T06:35:24.543Z,3.60
2019-05-05T06:37:54.766Z,3.75
2019-05-05T06:40:29.311Z,3.52
2019-05-05T06:43:00.266Z,3.35
2019-05-05T06:45:34.659Z,4.03
2019-05-05T06:48:04.361Z,4.10
2019-05-05T06:50:34.485Z,3.72
2019-05-05T06:53:04.387Z,3.85
2019-05-05T06:55:34.170Z,3.87
2019-05-05T06:58:04.602Z,4.20
2019-05-05T07:00:34.663Z,4.47
2019-05-05T07:03:07.671Z,4.12
2019-05-05T07:05:35.247Z,4.37
2019-05-05T07:08:04.657Z,3.87
2019-05-05T07:10:34.047Z,3.83
2019-05-05T07:13:04.969Z,4.55
2019-05-05T07:15:34.427Z,4.15
2019-05-05T07:18:03.868Z,4.20
2019-05-05T07:20:34.661Z,3.70
2019-05-05T07:23:05.451Z,4.15
2019-05-05T07:25:42.703Z,4.30
2019-05-05T07:28:06.215Z,4.70
2019-05-05T07:30:35.556Z,3.95
2019-05-05T07:33:04.861Z,4.17
2019-05-05T07:35:35.798Z,4.70
2019-05-05T07:38:05.148Z,4.20
2019-05-05T07:40:34.677Z,4.55
2019-05-05T07:43:04.581Z,3.83
2019-05-05T07:45:34.384Z,4.62
2019-05-05T07:48:04.846Z,4.17
2019-05-05T07:50:35.919Z,3.83
2019-05-05T07:53:14.558Z,4.12
2019-05-05T07:55:36.477Z,4.00
2019-05-05T07:58:05.788Z,4.03
2019-05-05T08:00:35.365Z,4.12
2019-05-05T08:03:04.690Z,4.03
2019-05-05T08:05:34.051Z,4.15
2019-05-05T08:08:04.641Z,3.65
2019-05-05T08:10:34.462Z,3.77
2019-05-05T08:13:04.686Z,4.05
2019-05-05T08:15:34.472Z,3.62
2019-05-05T08:18:20.065Z,3.55
2019-05-05T08:20:51.083Z,3.90
2019-05-05T08:23:30.328Z,3.75
2019-05-05T08:25:54.980Z,3.80
2019-05-05T08:28:34.825Z,4.28
2019-05-05T08:31:05.761Z,4.00
2019-05-05T08:33:35.158Z,3.87
2019-05-05T08:36:04.816Z,4.10
2019-05-05T08:38:34.738Z,4.05
2019-05-05T08:41:04.669Z,3.60
2019-05-05T08:43:34.843Z,3.45
2019-05-05T08:46:05.011Z,3.92
2019-05-05T08:48:34.416Z,4.37
2019-05-05T08:51:04.923Z,3.90
2019-05-05T08:53:42.463Z,4.17
2019-05-05T08:56:05.569Z,4.28
2019-05-05T08:58:34.936Z,4.03
2019-05-05T09:01:04.559Z,4.25
2019-05-05T09:03:33.847Z,3.58
2019-05-05T09:06:04.711Z,3.67
2019-05-05T09:08:34.833Z,3.67
2019-05-05T09:11:04.870Z,3.40
2019-05-05T09:13:34.740Z,3.90
2019-05-05T09:16:04.059Z,4.12
2019-05-05T09:18:33.982Z,3.83
2019-05-05T09:21:04.367Z,3.47
2019-05-05T09:23:35.465Z,3.27
2019-05-05T09:26:06.755Z,3.40
2019-05-05T09:28:53.900Z,2.92
2019-05-05T09:31:24.007Z,3.90
2019-05-05T09:33:56.368Z,3.52
2019-05-05T09:36:25.801Z,3.50
2019-05-05T09:38:55.154Z,4.80
2019-05-05T09:41:24.781Z,3.85
2019-05-05T09:43:54.133Z,3.45
2019-05-05T09:46:23.561Z,3.45
2019-05-05T09:48:54.133Z,4.05
2019-05-05T09:51:24.226Z,3.77
2019-05-05T09:53:54.277Z,3.90
2019-05-05T09:56:23.853Z,4.28
2019-05-05T09:58:54.468Z,3.60
2019-05-05T10:01:24.617Z,3.60
2019-05-05T10:03:57.293Z,3.00
2019-05-05T10:06:26.635Z,3.30
2019-05-05T10:08:57.842Z,2.95
2019-05-05T10:11:27.127Z,2.67
2019-05-05T10:13:56.473Z,2.22
2019-05-05T10:16:25.759Z,2.95
2019-05-05T10:18:55.343Z,2.98
2019-05-05T10:21:24.760Z,3.30
2019-05-05T10:23:55.915Z,2.98
2019-05-05T10:26:25.217Z,3.50
2019-05-05T10:28:54.551Z,3.20
2019-05-05T10:31:24.206Z,3.17
2019-05-05T10:33:55.182Z,2.83
2019-05-05T10:36:26.452Z,3.65
2019-05-05T10:39:04.435Z,3.67
2019-05-05T10:41:34.399Z,3.17
2019-05-05T10:44:04.067Z,3.08
2019-05-05T10:46:34.137Z,3.80
2019-05-05T10:49:03.510Z,3.27
2019-05-05T10:51:34.637Z,3.22
2019-05-05T10:54:04.143Z,3.85
2019-05-05T10:56:34.557Z,3.70
2019-05-05T10:59:04.412Z,3.47
2019-05-05T11:01:33.703Z,3.80
2019-05-05T11:04:03.043Z,3.47
2019-05-05T11:06:32.420Z,4.28
2019-05-05T11:09:04.341Z,4.10
2019-05-05T11:11:34.386Z,3.75
2019-05-05T11:14:04.554Z,4.35
2019-05-05T11:16:33.850Z,4.25
2019-05-05T11:19:04.333Z,3.87
2019-05-05T11:21:34.219Z,3.70
2019-05-05T11:24:04.066Z,4.33
2019-05-05T11:26:33.993Z,4.08
2019-05-05T11:29:04.246Z,4.05
2019-05-05T11:31:34.426Z,3.65
2019-05-05T11:34:05.488Z,4.15
2019-05-05T11:36:36.717Z,4.00
2019-05-05T11:39:07.403Z,3.20
2019-05-05T11:41:36.747Z,3.85
2019-05-05T11:44:06.050Z,3.90
2019-05-05T11:46:35.348Z,3.47
2019-05-05T11:49:05.120Z,4.00
2019-05-05T11:51:34.370Z,3.95
2019-05-05T11:54:04.772Z,4.15
2019-05-05T11:56:34.293Z,4.10
2019-05-05T11:59:04.041Z,3.77
2019-05-05T12:01:33.470Z,3.72
2019-05-05T12:04:04.538Z,3.95
2019-05-05T12:06:34.106Z,3.72
2019-05-05T12:09:06.136Z,3.87
2019-05-05T12:11:35.477Z,3.87
2019-05-05T12:14:06.424Z,3.90
2019-05-05T12:16:35.729Z,4.00
2019-05-05T12:19:08.081Z,3.70
2019-05-05T12:21:37.378Z,3.98
2019-05-05T12:24:08.388Z,4.05
2019-05-05T12:26:45.193Z,3.52
2019-05-05T12:29:14.537Z,4.40
2019-05-05T12:31:45.468Z,3.62
2019-05-05T12:34:14.829Z,3.60
2019-05-05T12:36:44.580Z,3.37
2019-05-05T12:39:14.379Z,2.98
2019-05-05T12:41:43.900Z,3.05
2019-05-05T12:44:15.455Z,3.30
2019-05-05T12:46:46.414Z,3.20
2019-05-05T12:49:15.767Z,3.00
2019-05-05T12:51:47.974Z,3.33
2019-05-05T12:54:17.584Z,3.42
2019-05-05T12:56:46.929Z,3.30
2019-05-05T12:59:17.858Z,3.40
2019-05-05T13:01:47.167Z,3.22
2019-05-05T13:04:16.492Z,3.15
2019-05-05T13:06:45.783Z,2.70
2019-05-05T13:09:16.859Z,2.98
2019-05-05T13:11:46.228Z,3.42
2019-05-05T13:14:15.767Z,2.95
2019-05-05T13:16:52.378Z,2.95
2019-05-05T13:19:24.352Z,3.47
2019-05-05T13:22:11.859Z,3.60
2019-05-05T13:25:00.816Z,3.50
2019-05-05T13:27:34.082Z,3.25
2019-05-05T13:30:04.341Z,3.65
2019-05-05T13:32:34.021Z,3.98
2019-05-05T13:35:04.239Z,3.60
2019-05-05T13:37:33.871Z,3.80
2019-05-05T13:40:05.126Z,4.00
2019-05-05T13:42:34.413Z,3.85
2019-05-05T13:45:14.490Z,3.72
2019-05-05T13:47:43.905Z,3.90
2019-05-05T13:50:15.556Z,4.35
2019-05-05T13:52:44.910Z,3.72
2019-05-05T13:55:15.127Z,3.92
2019-05-05T13:57:44.539Z,3.62
2019-05-05T14:00:17.080Z,3.75
2019-05-05T14:02:46.440Z,4.00
2019-05-05T14:05:15.880Z,3.90
2019-05-05T14:07:45.516Z,3.83
2019-05-05T14:10:15.049Z,4.78
2019-05-05T14:12:44.425Z,4.17
2019-05-05T14:15:16.946Z,4.00
2019-05-05T14:17:46.535Z,4.20
2019-05-05T14:20:16.171Z,4.10
2019-05-05T14:22:45.583Z,4.03
2019-05-05T14:25:24.268Z,4.00
2019-05-05T14:27:54.226Z,4.33
2019-05-05T14:30:26.450Z,4.25
2019-05-05T14:32:56.227Z,4.35
2019-05-05T14:35:30.168Z,4.28
2019-05-05T14:38:04.106Z,3.80
2019-05-05T14:40:33.928Z,4.15
2019-05-05T14:43:04.522Z,3.90
2019-05-05T14:45:34.406Z,3.72
2019-05-05T14:48:04.111Z,4.22
2019-05-05T14:50:34.730Z,4.30
2019-05-05T14:53:04.158Z,3.92
2019-05-05T14:55:33.670Z,3.85
2019-05-05T14:58:03.940Z,3.98
2019-05-05T15:00:33.848Z,3.90
2019-05-05T15:03:03.667Z,4.15
2019-05-05T15:05:38.132Z,3.75
2019-05-05T15:08:20.787Z,3.92
2019-05-05T15:10:54.764Z,3.85
2019-05-05T15:13:24.975Z,4.35
2019-05-05T15:15:54.583Z,4.00
2019-05-05T15:18:24.317Z,4.53
2019-05-05T15:20:54.719Z,4.05
2019-05-05T15:23:24.253Z,4.10
2019-05-05T15:25:54.097Z,4.17
2019-05-05T15:28:24.496Z,4.60
2019-05-05T15:30:54.634Z,4.22
2019-05-05T15:33:24.590Z,4.53
2019-05-05T15:35:54.926Z,4.47
2019-05-05T15:38:24.503Z,4.20
2019-05-05T15:40:54.842Z,3.80
2019-05-05T15:43:24.548Z,3.58
2019-05-05T15:45:54.569Z,4.00
2019-05-05T15:48:23.922Z,3.70
2019-05-05T15:50:54.607Z,3.90
2019-05-05T15:53:24.177Z,3.52
2019-05-05T15:55:54.122Z,4.25
2019-05-05T15:58:23.667Z,3.83
2019-05-05T16:00:53.839Z,5.22
2019-05-05T16:03:23.868Z,4.00
2019-05-05T16:05:54.305Z,3.60
2019-05-05T16:08:23.939Z,4.58
2019-05-05T16:10:54.605Z,4.22
2019-05-05T16:13:24.464Z,3.80
2019-05-05T16:15:58.591Z,3.85
2019-05-05T16:18:35.282Z,4.45
2019-05-05T16:21:09.550Z,3.58
2019-05-05T16:23:49.862Z,4.33
2019-05-05T16:26:19.165Z,4.65
2019-05-05T16:28:48.474Z,3.87
2019-05-05T16:31:17.814Z,4.35
2019-05-05T16:33:48.687Z,4.05
2019-05-05T16:36:17.996Z,3.75
2019-05-05T16:38:47.360Z,4.17
2019-05-05T16:41:16.658Z,4.25
2019-05-05T16:43:45.954Z,4.25
2019-05-05T16:46:17.111Z,3.67
2019-05-05T16:48:46.492Z,4.47
2019-05-05T16:51:17.436Z,4.00
2019-05-05T16:53:47.142Z,4.03
2019-05-05T16:56:17.314Z,4.08
2019-05-05T16:58:46.890Z,4.12
2019-05-05T17:01:17.511Z,4.83
2019-05-05T17:03:46.799Z,4.62
2019-05-05T17:06:16.134Z,4.35
2019-05-05T17:08:45.475Z,3.90
2019-05-05T17:11:15.222Z,4.72
2019-05-05T17:13:49.102Z,4.37
2019-05-05T17:16:36.075Z,3.85
2019-05-05T17:19:13.980Z,4.08
2019-05-05T17:21:54.082Z,3.90
2019-05-05T17:24:23.953Z,5.22
2019-05-05T17:26:54.843Z,3.80
2019-05-05T17:29:24.568Z,4.03
2019-05-05T17:31:54.139Z,4.42
2019-05-05T17:34:24.702Z,4.17
2019-05-05T17:36:54.608Z,4.33
2019-05-05T17:39:25.554Z,4.12
2019-05-05T17:41:56.792Z,4.00
2019-05-05T17:44:28.027Z,4.25
2019-05-05T17:47:15.551Z,3.90
2019-05-05T17:49:46.540Z,4.35
2019-05-05T17:52:17.748Z,4.70
2019-05-05T17:54:48.693Z,4.08
2019-05-05T17:57:18.394Z,4.03
2019-05-05T17:59:47.704Z,3.27
2019-05-05T18:02:19.989Z,3.90
2019-05-05T18:04:50.996Z,3.60
2019-05-05T18:07:23.815Z,3.20
2019-05-05T18:09:57.665Z,4.47
2019-05-05T18:12:37.189Z,5.50
2019-05-05T18:15:08.480Z,3.37
2019-05-05T18:17:37.782Z,3.67
2019-05-05T18:20:07.639Z,3.33
2019-05-05T18:22:37.023Z,3.10
2019-05-05T18:25:07.995Z,3.62
2019-05-05T18:27:37.297Z,3.45
2019-05-05T18:30:07.589Z,3.27
2019-05-05T18:32:37.159Z,3.60
2019-05-05T18:35:07.037Z,3.90
2019-05-05T18:37:36.393Z,3.50
2019-05-05T18:40:07.225Z,3.47
2019-05-05T18:42:36.537Z,3.67
2019-05-05T18:45:13.794Z,3.50
2019-05-05T18:47:43.427Z,3.30
2019-05-05T18:50:13.634Z,2.87
2019-05-05T18:52:45.140Z,3.00
2019-05-05T18:55:14.355Z,2.65
2019-05-05T18:57:43.637Z,2.90
2019-05-05T19:00:16.729Z,2.98
2019-05-05T19:02:50.778Z,2.65
2019-05-05T19:05:23.581Z,3.00
2019-05-05T19:07:57.295Z,2.92
2019-05-05T19:10:28.316Z,2.72
2019-05-05T19:12:57.616Z,2.75
2019-05-05T19:15:27.024Z,2.50
2019-05-05T19:17:56.321Z,3.08
2019-05-05T19:20:27.762Z,2.85
2019-05-05T19:23:02.899Z,2.58
2019-05-05T19:25:32.118Z,2.58
2019-05-05T19:28:01.409Z,2.77
2019-05-05T19:30:31.136Z,2.62
2019-05-05T19:33:00.705Z,2.80
2019-05-05T19:35:40.683Z,2.92
2019-05-05T19:38:01.133Z,2.98
2019-05-05T19:40:30.421Z,3.62
2019-05-05T19:42:59.709Z,3.10
2019-05-05T19:45:29.039Z,3.10
2019-05-05T19:48:01.240Z,2.80
2019-05-05T19:50:33.754Z,3.25
2019-05-05T19:53:04.451Z,2.70
2019-05-05T19:55:36.379Z,3.40
2019-05-05T19:58:05.934Z,3.22
2019-05-05T20:00:38.462Z,3.47
2019-05-05T20:03:06.581Z,2.92
2019-05-05T20:05:35.825Z,3.35
2019-05-05T20:08:05.176Z,3.40
2019-05-05T20:10:34.750Z,3.85
2019-05-05T20:13:05.007Z,3.40
2019-05-05T20:15:39.087Z,3.87
2019-05-05T20:18:08.379Z,3.35
2019-05-05T20:20:37.992Z,4.10
2019-05-05T20:23:07.324Z,4.00
2019-05-05T20:25:36.624Z,3.67
2019-05-05T20:28:05.928Z,3.85
2019-05-05T20:30:35.250Z,3.40
2019-05-05T20:33:13.754Z,3.60
2019-05-05T20:35:56.883Z,3.60
2019-05-05T20:38:30.509Z,3.65
2019-05-05T20:41:10.300Z,3.95
2019-05-05T20:43:39.656Z,3.87
2019-05-05T20:46:09.016Z,3.75
2019-05-05T20:48:41.019Z,3.72
2019-05-05T20:51:09.473Z,3.80
2019-05-05T20:53:39.060Z,3.80
2019-05-05T20:56:08.374Z,4.12
2019-05-05T20:58:37.663Z,4.08
2019-05-05T21:01:06.974Z,3.98
2019-05-05T21:03:36.309Z,3.92
2019-05-05T21:06:05.596Z,3.52
2019-05-05T21:08:35.032Z,3.65
2019-05-05T21:11:04.677Z,3.33
2019-05-05T21:13:34.415Z,3.37
2019-05-05T21:16:04.081Z,3.77
2019-05-05T21:18:34.686Z,3.60
2019-05-05T21:21:05.827Z,4.03
2019-05-05T21:23:36.777Z,3.60
2019-05-05T21:26:10.403Z,3.55
2019-05-05T21:28:39.696Z,3.67
2019-05-05T21:31:09.282Z,3.42
2019-05-05T21:33:38.616Z,3.80
2019-05-05T21:36:07.981Z,3.30
2019-05-05T21:38:37.607Z,3.70
2019-05-05T21:41:07.199Z,3.90
2019-05-05T21:43:36.506Z,4.10
2019-05-05T21:46:05.776Z,3.98
2019-05-05T21:48:35.115Z,3.87
2019-05-05T21:51:06.044Z,4.00
2019-05-05T21:53:36.975Z,3.42
2019-05-05T21:56:24.781Z,3.30
2019-05-05T21:58:55.953Z,3.45
2019-05-05T22:01:27.727Z,3.58
2019-05-05T22:03:56.953Z,3.58
2019-05-05T22:06:26.245Z,3.67
2019-05-05T22:08:55.537Z,4.35
2019-05-05T22:11:24.887Z,3.65
2019-05-05T22:13:54.261Z,3.92
2019-05-05T22:16:23.927Z,3.25
2019-05-05T22:18:54.215Z,3.50
2019-05-05T22:21:28.047Z,3.80
2019-05-05T22:24:05.029Z,3.90
2019-05-05T22:26:34.325Z,3.83
2019-05-05T22:29:04.828Z,3.98
2019-05-05T22:31:34.721Z,3.85
2019-05-05T22:34:05.383Z,4.03
2019-05-05T22:36:35.843Z,3.98
2019-05-05T22:39:08.788Z,4.17
2019-05-05T22:41:38.082Z,4.50
2019-05-05T22:44:07.439Z,3.98
2019-05-05T22:46:37.056Z,4.47
2019-05-05T22:49:09.028Z,4.35
2019-05-05T22:51:38.319Z,4.50
2019-05-05T22:54:08.724Z,4.62
2019-05-05T22:56:38.732Z,4.60
2019-05-05T22:59:09.695Z,4.80
2019-05-05T23:01:39.028Z,4.55
2019-05-05T23:04:28.138Z,4.87
2019-05-05T23:06:59.123Z,4.30
2019-05-05T23:09:28.701Z,4.28
2019-05-05T23:11:58.065Z,4.40
2019-05-05T23:14:30.908Z,4.90
2019-05-05T23:17:12.105Z,4.80
2019-05-05T23:19:55.264Z,4.55
2019-05-05T23:22:44.166Z,4.47
2019-05-05T23:25:18.424Z,5.03
2019-05-05T23:27:49.359Z,4.90
2019-05-05T23:30:32.275Z,4.50
2019-05-05T23:32:55.155Z,4.65
2019-05-05T23:35:24.506Z,4.90
2019-05-05T23:37:55.254Z,4.97
2019-05-05T23:40:27.474Z,4.53
2019-05-05T23:42:56.948Z,5.55
2019-05-05T23:45:26.310Z,4.72
2019-05-05T23:47:55.615Z,4.83
2019-05-05T23:50:25.380Z,4.83
2019-05-05T23:52:54.912Z,5.17
2019-05-05T23:55:24.413Z,4.65
2019-05-05T23:57:54.608Z,5.00
